Time;durP1;ratioP1;P1;durP2;ratioP2;P2;SDS_P1;SDS_P2;PMS_P1;PMS_P2;Temp;Humidity;BMP_temperature;BMP_pressure;BME280_temperature;BME280_humidity;BME280_pressure;Samples;Min_cycle;Max_cycle;Signal;HPM_P1;HPM_P2
2022/03/24 00:01:48;;;;;;;;;;;7.40;54.10;;;;;;5025490;28;86986;-56
2022/03/24 00:04:14;;;;;;;;;;;7.40;54.30;;;;;;5028463;28;86623;-54
2022/03/24 00:06:40;;;;;;;;;;;7.40;54.10;;;;;;5027274;28;87718;-52
2022/03/24 00:09:06;;;;;;;;;;;7.40;54.30;;;;;;5027750;28;86889;-54
2022/03/24 00:11:32;;;;;;;;;;;7.40;54.30;;;;;;5026943;28;88190;-52
2022/03/24 00:13:58;;;;;;;;;;;7.40;54.40;;;;;;5027205;28;88566;-51
2022/03/24 00:16:24;;;;;;;;;;;7.40;54.40;;;;;;5027517;28;86879;-53
2022/03/24 00:18:50;;;;;;;;;;;7.30;54.40;;;;;;5030023;28;87984;-55
2022/03/24 00:21:16;;;;;;;;;;;7.30;54.30;;;;;;5027411;28;86888;-52
2022/03/24 00:23:43;;;;;;;;;;;7.20;54.40;;;;;;5027378;28;88149;-52
2022/03/24 00:26:09;;;;;;;;;;;7.30;54.40;;;;;;5027098;28;87381;-52
2022/03/24 00:28:34;;;;;;;;;;;7.20;54.50;;;;;;5027297;28;86144;-52
2022/03/24 00:31:01;;;;;;;;;;;7.20;54.40;;;;;;5027332;28;86906;-53
2022/03/24 00:33:27;;;;;;;;;;;7.30;54.50;;;;;;5026880;28;88451;-54
2022/03/24 00:35:52;;;;;;;;;;;7.20;54.40;;;;;;5026899;28;87819;-51
2022/03/24 00:38:18;;;;;;;;;;;7.20;54.30;;;;;;5026660;28;87840;-51
2022/03/24 00:40:44;;;;;;;;;;;7.20;54.40;;;;;;5029710;28;87682;-51
2022/03/24 00:43:10;;;;;;;;;;;7.10;54.50;;;;;;5027282;28;86989;-51
2022/03/24 00:45:36;;;;;;;;;;;7.10;54.40;;;;;;5026342;28;88273;-51
2022/03/24 00:48:02;;;;;;;;;;;7.10;54.50;;;;;;5027230;28;86846;-52
2022/03/24 00:50:28;;;;;;;;;;;7.10;54.60;;;;;;5027054;28;87941;-52
2022/03/24 00:52:54;;;;;;;;;;;7.10;54.50;;;;;;5027114;28;86815;-51
2022/03/24 00:55:20;;;;;;;;;;;7.10;54.40;;;;;;5026965;28;86867;-51
2022/03/24 00:57:51;;;;;;;;;;;7.10;54.60;;;;;;5026850;28;87631;-51
2022/03/24 01:00:20;;;;;;;;;;;7.10;54.60;;;;;;5025846;28;89187;-53
2022/03/24 01:02:48;;;;;;;;;;;7.00;54.50;;;;;;5029380;28;87215;-51
2022/03/24 01:05:17;;;;;;;;;;;7.00;54.60;;;;;;5025095;28;88650;-51
2022/03/24 01:07:44;;;;;;;;;;;7.00;54.40;;;;;;5026801;28;87039;-51
2022/03/24 01:10:11;;;;;;;;;;;7.00;54.30;;;;;;5027073;28;86815;-51
2022/03/24 01:12:37;;;;;;;;;;;7.00;54.50;;;;;;5025564;28;87560;-51
2022/03/24 01:15:04;;;;;;;;;;;7.00;54.50;;;;;;5026635;28;87209;-51
2022/03/24 01:17:31;;;;;;;;;;;6.90;54.50;;;;;;5027120;28;88137;-52
2022/03/24 01:19:57;;;;;;;;;;;6.90;54.60;;;;;;5026160;28;88508;-52
2022/03/24 01:22:23;;;;;;;;;;;6.90;54.40;;;;;;5026759;28;86907;-51
2022/03/24 01:24:49;;;;;;;;;;;6.90;54.50;;;;;;5028376;28;87835;-52
2022/03/24 01:27:15;;;;;;;;;;;6.90;54.50;;;;;;5026356;28;86882;-52
2022/03/24 01:29:41;;;;;;;;;;;6.90;54.60;;;;;;5026436;28;86998;-51
2022/03/24 01:32:07;;;;;;;;;;;6.90;54.70;;;;;;5026091;28;87585;-51
2022/03/24 01:34:34;;;;;;;;;;;6.90;54.60;;;;;;5026093;28;86975;-53
2022/03/24 01:37:00;;;;;;;;;;;6.80;54.50;;;;;;5026537;28;86855;-55
2022/03/24 01:39:26;;;;;;;;;;;6.80;54.40;;;;;;5024890;28;87862;-51
2022/03/24 01:41:52;;;;;;;;;;;6.80;54.50;;;;;;5026954;28;86117;-51
2022/03/24 01:44:18;;;;;;;;;;;6.80;54.50;;;;;;5026611;28;86851;-52
2022/03/24 01:46:54;;;;;;;;;;;6.80;54.60;;;;;;5028579;28;88644;-51
2022/03/24 01:49:20;;;;;;;;;;;6.70;54.50;;;;;;5025412;28;88119;-51
2022/03/24 01:51:45;;;;;;;;;;;6.80;54.70;;;;;;5025758;28;88627;-52
2022/03/24 01:54:12;;;;;;;;;;;6.70;54.60;;;;;;5026076;28;87049;-51
2022/03/24 01:56:38;;;;;;;;;;;6.70;54.60;;;;;;5026050;28;87724;-51
2022/03/24 01:59:05;;;;;;;;;;;6.70;54.60;;;;;;5024272;28;88674;-52
2022/03/24 02:01:34;;;;;;;;;;;6.70;54.70;;;;;;5026218;28;86837;-52
2022/03/24 02:04:04;;;;;;;;;;;6.70;54.70;;;;;;5025981;28;87832;-51
2022/03/24 02:06:31;;;;;;;;;;;6.70;54.60;;;;;;5025982;28;87566;-51
2022/03/24 02:08:57;;;;;;;;;;;6.60;54.50;;;;;;5028712;28;86860;-55
2022/03/24 02:11:22;;;;;;;;;;;6.60;54.70;;;;;;5025452;28;88654;-52
2022/03/24 02:13:48;;;;;;;;;;;6.60;54.80;;;;;;5025481;28;87834;-51
2022/03/24 02:16:15;;;;;;;;;;;6.60;54.70;;;;;;5025768;28;88025;-51
2022/03/24 02:18:41;;;;;;;;;;;6.60;54.70;;;;;;5025364;28;88491;-51
2022/03/24 02:21:08;;;;;;;;;;;6.60;54.80;;;;;;5025693;28;86861;-52
2022/03/24 02:23:33;;;;;;;;;;;6.60;54.70;;;;;;5025762;28;87221;-53
2022/03/24 02:26:00;;;;;;;;;;;6.50;54.70;;;;;;5023940;28;88581;-52
2022/03/24 02:28:26;;;;;;;;;;;6.50;54.70;;;;;;5028478;28;86923;-51
2022/03/24 02:30:52;;;;;;;;;;;6.50;54.70;;;;;;5025820;28;87627;-52
2022/03/24 02:33:23;;;;;;;;;;;6.50;54.70;;;;;;5025642;28;87140;-52
2022/03/24 02:35:52;;;;;;;;;;;6.50;54.70;;;;;;5025487;28;87100;-53
2022/03/24 02:38:19;;;;;;;;;;;6.50;54.60;;;;;;5024427;28;89684;-55
2022/03/24 02:40:46;;;;;;;;;;;6.50;54.70;;;;;;5025516;28;87112;-54
2022/03/24 02:43:12;;;;;;;;;;;6.40;54.60;;;;;;5025412;28;88147;-52
2022/03/24 02:45:38;;;;;;;;;;;6.40;54.60;;;;;;5025033;28;88422;-51
2022/03/24 02:48:04;;;;;;;;;;;6.40;54.70;;;;;;5025246;28;86986;-51
2022/03/24 02:50:30;;;;;;;;;;;6.40;54.70;;;;;;5028714;28;88329;-51
2022/03/24 02:52:56;;;;;;;;;;;6.40;54.70;;;;;;5029128;28;86907;-51
2022/03/24 02:55:21;;;;;;;;;;;6.30;54.60;;;;;;5029160;28;87867;-51
2022/03/24 02:57:47;;;;;;;;;;;6.30;54.80;;;;;;5028607;28;87451;-51
2022/03/24 03:00:13;;;;;;;;;;;6.30;54.70;;;;;;5028783;28;86804;-53
2022/03/24 03:02:39;;;;;;;;;;;6.30;54.70;;;;;;5027490;28;88008;-52
2022/03/24 03:05:05;;;;;;;;;;;6.30;55.30;;;;;;5028200;28;88444;-51
2022/03/24 03:07:31;;;;;;;;;;;6.30;54.90;;;;;;5028491;28;86961;-51
2022/03/24 03:09:57;;;;;;;;;;;6.30;54.90;;;;;;5028570;28;86944;-51
2022/03/24 03:12:26;;;;;;;;;;;6.20;54.80;;;;;;5031200;28;87213;-54
2022/03/24 03:14:51;;;;;;;;;;;6.20;54.70;;;;;;5028488;28;88002;-52
2022/03/24 03:17:17;;;;;;;;;;;6.20;54.80;;;;;;5028103;28;88734;-52
2022/03/24 03:19:45;;;;;;;;;;;6.20;54.80;;;;;;5027612;28;86221;-52
2022/03/24 03:22:12;;;;;;;;;;;6.20;54.90;;;;;;5028465;28;87197;-54
2022/03/24 03:24:39;;;;;;;;;;;6.10;54.80;;;;;;5027930;28;88312;-54
2022/03/24 03:27:05;;;;;;;;;;;6.20;54.70;;;;;;5027540;28;87908;-52
2022/03/24 03:29:31;;;;;;;;;;;6.10;54.70;;;;;;5028348;28;88894;-53
2022/03/24 03:31:56;;;;;;;;;;;6.10;54.80;;;;;;5028085;28;87355;-55
2022/03/24 03:34:26;;;;;;;;;;;6.10;54.70;;;;;;5031342;28;87115;-53
2022/03/24 03:36:53;;;;;;;;;;;6.10;54.80;;;;;;5027749;28;87684;-52
2022/03/24 03:39:19;;;;;;;;;;;6.10;54.80;;;;;;5028163;28;87173;-52
2022/03/24 03:41:45;;;;;;;;;;;6.10;54.60;;;;;;5028530;28;87199;-52
2022/03/24 03:44:11;;;;;;;;;;;6.00;54.70;;;;;;5028160;28;87564;-53
2022/03/24 03:46:37;;;;;;;;;;;6.00;54.70;;;;;;5028247;28;86856;-51
2022/03/24 03:49:04;;;;;;;;;;;6.00;54.80;;;;;;5027928;28;88102;-52
2022/03/24 03:51:31;;;;;;;;;;;6.00;54.70;;;;;;5027189;28;88052;-51
2022/03/24 03:53:57;;;;;;;;;;;6.00;54.70;;;;;;5026901;28;86904;-52
2022/03/24 03:56:23;;;;;;;;;;;5.90;54.90;;;;;;5029229;28;87825;-51
2022/03/24 03:58:49;;;;;;;;;;;5.90;54.80;;;;;;5028073;28;86926;-52
2022/03/24 04:01:15;;;;;;;;;;;5.90;54.90;;;;;;5027419;28;88079;-52
2022/03/24 04:03:41;;;;;;;;;;;5.90;54.90;;;;;;5026835;28;86893;-51
2022/03/24 04:06:09;;;;;;;;;;;5.90;54.70;;;;;;5009851;28;87082;-51
2022/03/24 04:08:36;;;;;;;;;;;5.90;54.90;;;;;;5028014;28;88167;-51
2022/03/24 04:11:01;;;;;;;;;;;5.80;54.80;;;;;;5027193;28;87471;-51
2022/03/24 04:13:28;;;;;;;;;;;5.90;54.90;;;;;;5027094;28;86886;-55
2022/03/24 04:15:54;;;;;;;;;;;5.80;54.80;;;;;;5028953;28;87870;-51
2022/03/24 04:18:20;;;;;;;;;;;5.80;54.70;;;;;;5026971;28;86842;-52
2022/03/24 04:20:45;;;;;;;;;;;5.80;54.80;;;;;;5026992;28;87034;-53
2022/03/24 04:23:11;;;;;;;;;;;5.80;54.90;;;;;;5026706;28;87631;-52
2022/03/24 04:25:37;;;;;;;;;;;5.70;54.80;;;;;;5025705;28;87040;-52
2022/03/24 04:28:04;;;;;;;;;;;5.80;54.80;;;;;;5025327;28;88007;-53
2022/03/24 04:30:31;;;;;;;;;;;5.70;54.90;;;;;;5026532;28;88511;-55
2022/03/24 04:32:58;;;;;;;;;;;5.70;55.00;;;;;;5027430;28;86501;-53
2022/03/24 04:35:23;;;;;;;;;;;5.70;54.90;;;;;;5026972;28;87173;-52
2022/03/24 04:37:49;;;;;;;;;;;5.70;55.00;;;;;;5029042;28;87661;-54
2022/03/24 04:40:16;;;;;;;;;;;5.70;55.00;;;;;;5026034;28;87970;-52
2022/03/24 04:42:43;;;;;;;;;;;5.70;54.90;;;;;;5026299;28;87707;-55
2022/03/24 04:45:09;;;;;;;;;;;5.70;54.80;;;;;;5027160;28;87151;-55
2022/03/24 04:47:35;;;;;;;;;;;5.70;54.90;;;;;;5026416;28;87105;-53
2022/03/24 04:50:00;;;;;;;;;;;5.70;54.90;;;;;;5026196;28;87449;-54
2022/03/24 04:52:26;;;;;;;;;;;5.60;54.80;;;;;;5026657;28;86888;-55
2022/03/24 04:54:52;;;;;;;;;;;5.60;54.80;;;;;;5026546;28;87849;-53
2022/03/24 04:57:17;;;;;;;;;;;5.60;54.90;;;;;;5026551;28;87823;-54
2022/03/24 04:59:43;;;;;;;;;;;5.60;54.90;;;;;;5028768;28;86971;-51
2022/03/24 05:02:12;;;;;;;;;;;5.60;54.90;;;;;;5025519;28;88465;-52
2022/03/24 05:04:37;;;;;;;;;;;5.60;54.80;;;;;;5025505;28;87925;-52
2022/03/24 05:07:03;;;;;;;;;;;5.60;54.90;;;;;;5026386;28;87658;-54
2022/03/24 05:09:29;;;;;;;;;;;5.50;54.80;;;;;;5024972;28;86994;-52
2022/03/24 05:11:54;;;;;;;;;;;5.50;54.90;;;;;;5026330;28;86846;-53
2022/03/24 05:14:20;;;;;;;;;;;5.50;54.80;;;;;;5026378;28;86946;-53
2022/03/24 05:16:46;;;;;;;;;;;5.50;54.80;;;;;;5026150;28;86943;-52
2022/03/24 05:19:13;;;;;;;;;;;5.50;54.90;;;;;;5026498;28;86861;-54
2022/03/24 05:21:38;;;;;;;;;;;5.50;54.80;;;;;;5029511;28;87830;-51
2022/03/24 05:24:04;;;;;;;;;;;5.50;54.70;;;;;;5026796;28;86860;-52
2022/03/24 05:26:30;;;;;;;;;;;5.50;54.90;;;;;;5026485;28;86851;-52
2022/03/24 05:28:56;;;;;;;;;;;5.40;54.80;;;;;;5025410;28;89607;-51
2022/03/24 05:31:22;;;;;;;;;;;5.40;55.00;;;;;;5008785;28;86924;-54
2022/03/24 05:33:47;;;;;;;;;;;5.40;54.90;;;;;;5026371;28;87972;-52
2022/03/24 05:36:15;;;;;;;;;;;5.40;54.90;;;;;;5026021;28;88836;-53
2022/03/24 05:38:41;;;;;;;;;;;5.40;54.80;;;;;;5026281;28;86878;-51
2022/03/24 05:41:13;;;;;;;;;;;5.40;54.90;;;;;;5025494;28;87245;-51
2022/03/24 05:43:39;;;;;;;;;;;5.40;54.90;;;;;;5028296;28;86811;-53
2022/03/24 05:46:06;;;;;;;;;;;5.40;54.90;;;;;;5026636;28;90305;-51
2022/03/24 05:48:33;;;;;;;;;;;5.40;54.90;;;;;;5025630;28;88803;-54
2022/03/24 05:50:59;;;;;;;;;;;5.40;55.00;;;;;;5026164;28;86912;-55
2022/03/24 05:53:25;;;;;;;;;;;5.30;55.00;;;;;;5024244;28;88194;-51
2022/03/24 05:55:51;;;;;;;;;;;5.40;54.90;;;;;;5025815;28;88446;-51
2022/03/24 05:58:17;;;;;;;;;;;5.30;54.90;;;;;;5026150;28;86902;-51
2022/03/24 06:00:43;;;;;;;;;;;5.30;55.00;;;;;;5026036;28;87683;-53
2022/03/24 06:03:09;;;;;;;;;;;5.30;55.10;;;;;;5025325;28;88648;-53
2022/03/24 06:05:40;;;;;;;;;;;5.30;55.00;;;;;;5028971;28;86878;-52
2022/03/24 06:08:07;;;;;;;;;;;5.30;55.00;;;;;;5024478;28;89324;-54
2022/03/24 06:10:33;;;;;;;;;;;5.30;55.00;;;;;;5026480;28;86019;-52
2022/03/24 06:12:59;;;;;;;;;;;5.30;55.00;;;;;;5026175;28;86838;-53
2022/03/24 06:15:24;;;;;;;;;;;5.30;55.00;;;;;;5025384;28;88408;-51
2022/03/24 06:17:50;;;;;;;;;;;5.30;55.10;;;;;;5025453;28;88082;-51
2022/03/24 06:20:16;;;;;;;;;;;5.30;55.10;;;;;;5024640;28;87815;-55
2022/03/24 06:22:49;;;;;;;;;;;5.30;55.10;;;;;;5025345;28;88621;-55
2022/03/24 06:25:15;;;;;;;;;;;5.30;55.10;;;;;;5029167;28;86882;-52
2022/03/24 06:27:41;;;;;;;;;;;5.30;55.10;;;;;;5028854;28;88622;-51
2022/03/24 06:30:07;;;;;;;;;;;5.30;55.10;;;;;;5029220;28;86879;-52
2022/03/24 06:32:33;;;;;;;;;;;5.30;55.10;;;;;;5029190;28;88710;-51
2022/03/24 06:34:59;;;;;;;;;;;5.30;55.00;;;;;;5029519;28;86932;-52
2022/03/24 06:37:26;;;;;;;;;;;5.30;55.20;;;;;;5029352;28;86972;-51
2022/03/24 06:39:52;;;;;;;;;;;5.30;55.20;;;;;;5029058;28;87866;-52
2022/03/24 06:42:19;;;;;;;;;;;5.30;55.20;;;;;;5027075;28;89544;-51
2022/03/24 06:44:44;;;;;;;;;;;5.30;55.20;;;;;;5029008;28;87050;-51
2022/03/24 06:47:10;;;;;;;;;;;5.30;55.20;;;;;;5031438;28;87132;-52
2022/03/24 06:49:36;;;;;;;;;;;5.30;55.20;;;;;;5029358;28;86891;-51
2022/03/24 06:52:03;;;;;;;;;;;5.30;55.20;;;;;;5029129;28;86831;-51
2022/03/24 06:54:29;;;;;;;;;;;5.30;55.10;;;;;;5028526;28;88354;-51
2022/03/24 06:56:54;;;;;;;;;;;5.30;55.20;;;;;;5028879;28;86945;-54
2022/03/24 06:59:20;;;;;;;;;;;5.30;55.10;;;;;;5029543;28;86898;-51
2022/03/24 07:01:47;;;;;;;;;;;5.30;55.20;;;;;;5028296;28;88688;-54
2022/03/24 07:04:13;;;;;;;;;;;5.30;55.10;;;;;;5028676;28;86875;-51
2022/03/24 07:06:42;;;;;;;;;;;5.30;55.30;;;;;;5028020;28;87782;-51
2022/03/24 07:09:07;;;;;;;;;;;5.30;55.20;;;;;;5031190;28;88534;-51
2022/03/24 07:11:33;;;;;;;;;;;5.30;55.30;;;;;;5028923;28;86815;-52
2022/03/24 07:13:59;;;;;;;;;;;5.30;55.30;;;;;;5028487;28;87499;-51
2022/03/24 07:16:24;;;;;;;;;;;5.30;55.40;;;;;;5028438;28;87234;-55
2022/03/24 07:18:51;;;;;;;;;;;5.30;55.40;;;;;;5027540;28;86949;-52
2022/03/24 07:21:17;;;;;;;;;;;5.30;55.40;;;;;;5027984;28;87475;-53
2022/03/24 07:23:43;;;;;;;;;;;5.30;55.50;;;;;;5028829;28;86433;-52
2022/03/24 07:26:09;;;;;;;;;;;5.30;55.40;;;;;;5028510;28;87600;-52
2022/03/24 07:28:35;;;;;;;;;;;5.30;55.40;;;;;;5027237;28;88422;-52
2022/03/24 07:31:19;;;;;;;;;;;5.30;55.50;;;;;;5030637;28;87894;-51
2022/03/24 07:33:45;;;;;;;;;;;5.30;55.50;;;;;;5027823;28;87659;-52
2022/03/24 07:36:11;;;;;;;;;;;5.30;55.40;;;;;;5028267;28;86992;-54
2022/03/24 07:38:37;;;;;;;;;;;5.30;55.40;;;;;;5027378;28;86862;-52
2022/03/24 07:41:02;;;;;;;;;;;5.30;55.30;;;;;;5027927;28;87526;-51
2022/03/24 07:43:28;;;;;;;;;;;5.30;55.30;;;;;;5026909;28;86939;-52
2022/03/24 07:45:53;;;;;;;;;;;5.30;55.40;;;;;;5028136;28;87949;-52
2022/03/24 07:48:25;;;;;;;;;;;5.30;55.40;;;;;;5028445;28;86753;-51
2022/03/24 07:50:52;;;;;;;;;;;5.40;55.40;;;;;;5027914;28;86891;-52
2022/03/24 07:53:17;;;;;;;;;;;5.40;55.40;;;;;;5030456;28;87110;-51
2022/03/24 07:55:45;;;;;;;;;;;5.40;55.40;;;;;;5027227;28;87903;-52
2022/03/24 07:58:12;;;;;;;;;;;5.40;55.50;;;;;;5027890;28;88828;-52
2022/03/24 08:00:37;;;;;;;;;;;5.40;55.40;;;;;;5027425;28;88519;-51
2022/03/24 08:03:05;;;;;;;;;;;5.40;55.50;;;;;;5027374;28;86852;-51
2022/03/24 08:05:32;;;;;;;;;;;5.40;55.30;;;;;;5027769;28;87740;-52
2022/03/24 08:07:57;;;;;;;;;;;5.40;55.30;;;;;;5027232;28;88624;-52
2022/03/24 08:10:23;;;;;;;;;;;5.40;55.30;;;;;;5027698;28;86915;-52
2022/03/24 08:12:49;;;;;;;;;;;5.40;55.30;;;;;;5028071;28;87906;-52
2022/03/24 08:15:15;;;;;;;;;;;5.40;55.40;;;;;;5030214;28;88366;-52
2022/03/24 08:17:40;;;;;;;;;;;5.40;55.30;;;;;;5027942;28;87130;-51
2022/03/24 08:20:07;;;;;;;;;;;5.40;55.30;;;;;;5026661;28;88247;-52
2022/03/24 08:22:33;;;;;;;;;;;5.40;55.30;;;;;;5026708;28;86848;-51
2022/03/24 08:24:59;;;;;;;;;;;5.40;55.40;;;;;;5027743;28;86832;-51
2022/03/24 08:27:25;;;;;;;;;;;5.40;55.40;;;;;;5026872;28;87745;-51
2022/03/24 08:29:51;;;;;;;;;;;5.40;55.40;;;;;;5027736;28;86852;-51
2022/03/24 08:32:16;;;;;;;;;;;5.40;55.40;;;;;;5026186;28;86855;-53
2022/03/24 08:34:42;;;;;;;;;;;5.50;55.40;;;;;;5029790;28;88482;-51
2022/03/24 08:37:08;;;;;;;;;;;5.50;55.40;;;;;;5026443;28;87363;-51
2022/03/24 08:39:34;;;;;;;;;;;5.50;55.40;;;;;;5026696;28;88701;-51
2022/03/24 08:42:00;;;;;;;;;;;5.50;55.40;;;;;;5027048;28;86850;-51
2022/03/24 08:44:25;;;;;;;;;;;5.50;55.40;;;;;;5026163;28;88105;-51
2022/03/24 08:46:51;;;;;;;;;;;5.50;55.40;;;;;;5024862;28;87851;-51
2022/03/24 08:49:18;;;;;;;;;;;5.50;55.40;;;;;;5026113;28;86875;-51
2022/03/24 08:51:45;;;;;;;;;;;5.50;55.30;;;;;;5027033;28;88194;-51
2022/03/24 08:54:10;;;;;;;;;;;5.50;55.30;;;;;;5026574;28;88592;-51
2022/03/24 08:56:36;;;;;;;;;;;5.50;55.40;;;;;;5029921;28;86899;-51
2022/03/24 08:59:02;;;;;;;;;;;5.50;55.60;;;;;;5026562;28;88247;-51
2022/03/24 09:01:29;;;;;;;;;;;5.50;55.50;;;;;;5027066;28;86171;-51
2022/03/24 09:03:55;;;;;;;;;;;5.50;55.60;;;;;;5026834;28;87342;-51
2022/03/24 09:06:21;;;;;;;;;;;5.50;55.60;;;;;;5026537;28;87426;-51
2022/03/24 09:08:47;;;;;;;;;;;5.60;55.70;;;;;;5026089;28;87921;-51
2022/03/24 09:11:13;;;;;;;;;;;5.60;55.70;;;;;;5026798;28;87945;-53
2022/03/24 09:13:39;;;;;;;;;;;5.60;55.60;;;;;;5026379;28;88306;-51
2022/03/24 09:16:05;;;;;;;;;;;5.60;55.70;;;;;;5026897;28;87068;-51
2022/03/24 09:18:33;;;;;;;;;;;5.60;55.70;;;;;;5029105;28;87812;-51
2022/03/24 09:20:59;;;;;;;;;;;5.60;55.70;;;;;;5026575;28;86922;-51
2022/03/24 09:23:26;;;;;;;;;;;5.60;55.80;;;;;;5026712;28;87109;-51
2022/03/24 09:25:53;;;;;;;;;;;5.60;55.80;;;;;;5026743;28;86918;-51
2022/03/24 09:28:19;;;;;;;;;;;5.60;55.90;;;;;;5026673;28;87059;-51
2022/03/24 09:30:45;;;;;;;;;;;5.60;55.90;;;;;;5026524;28;88179;-51
2022/03/24 09:33:11;;;;;;;;;;;5.60;55.80;;;;;;5025379;28;89452;-51
2022/03/24 09:35:36;;;;;;;;;;;5.70;56.00;;;;;;5026478;28;86990;-51
2022/03/24 09:38:02;;;;;;;;;;;5.70;56.30;;;;;;5026576;28;86795;-51
2022/03/24 09:40:28;;;;;;;;;;;5.70;56.20;;;;;;5027825;28;88527;-51
2022/03/24 09:42:55;;;;;;;;;;;5.70;56.30;;;;;;5026281;28;87986;-51
2022/03/24 09:45:21;;;;;;;;;;;5.80;55.80;;;;;;5025631;28;87501;-51
2022/03/24 09:47:47;;;;;;;;;;;5.80;55.90;;;;;;5026486;28;86866;-51
2022/03/24 09:50:14;;;;;;;;;;;5.80;55.90;;;;;;5026159;28;87022;-51
2022/03/24 09:52:40;;;;;;;;;;;5.80;56.00;;;;;;5025918;28;88492;-51
2022/03/24 09:55:07;;;;;;;;;;;5.80;56.10;;;;;;5026090;28;87138;-53
2022/03/24 09:57:34;;;;;;;;;;;5.80;56.20;;;;;;5025558;28;88242;-51
2022/03/24 10:00:00;;;;;;;;;;;5.90;56.20;;;;;;5024780;28;87550;-51
2022/03/24 10:02:28;;;;;;;;;;;5.90;56.30;;;;;;5032363;28;86891;-51
2022/03/24 10:04:55;;;;;;;;;;;5.90;56.30;;;;;;5029192;28;88463;-51
2022/03/24 10:07:31;;;;;;;;;;;5.90;56.50;;;;;;5029564;28;87147;-51
2022/03/24 10:09:56;;;;;;;;;;;6.00;55.90;;;;;;5029660;28;87187;-51
2022/03/24 10:12:26;;;;;;;;;;;6.00;56.00;;;;;;5029099;28;88556;-51
2022/03/24 10:14:59;;;;;;;;;;;6.00;56.00;;;;;;5030262;28;86113;-51
2022/03/24 10:17:25;;;;;;;;;;;6.00;55.50;;;;;;5029424;28;87135;-51
2022/03/24 10:20:04;;;;;;;;;;;6.10;55.80;;;;;;5029044;28;87602;-50
2022/03/24 10:22:31;;;;;;;;;;;6.10;55.60;;;;;;5027580;28;87857;-51
2022/03/24 10:24:57;;;;;;;;;;;6.10;55.10;;;;;;5031808;28;88849;-50
2022/03/24 10:27:24;;;;;;;;;;;6.10;55.10;;;;;;5029274;28;86969;-50
2022/03/24 10:29:54;;;;;;;;;;;6.20;54.60;;;;;;5028106;28;87924;-51
2022/03/24 10:32:21;;;;;;;;;;;6.20;54.90;;;;;;5028810;28;88343;-51
2022/03/24 10:34:48;;;;;;;;;;;6.20;54.80;;;;;;5029252;28;86978;-51
2022/03/24 10:37:17;;;;;;;;;;;6.20;55.70;;;;;;5029176;28;87064;-51
2022/03/24 10:40:05;;;;;;;;;;;6.30;55.30;;;;;;5029223;28;87862;-50
2022/03/24 10:42:33;;;;;;;;;;;6.30;54.90;;;;;;5029067;28;86933;-51
2022/03/24 10:45:11;;;;;;;;;;;6.30;54.90;;;;;;5031527;28;87998;-51
2022/03/24 10:47:37;;;;;;;;;;;6.40;55.60;;;;;;5028120;28;88336;-51
2022/03/24 10:50:24;;;;;;;;;;;6.40;54.60;;;;;;5028903;28;88161;-51
2022/03/24 10:52:51;;;;;;;;;;;6.40;54.80;;;;;;5011610;28;88604;-51
2022/03/24 10:55:37;;;;;;;;;;;6.40;55.10;;;;;;5028807;28;87190;-51
2022/03/24 10:58:24;;;;;;;;;;;6.50;54.80;;;;;;5028383;28;87795;-51
2022/03/24 11:00:54;;;;;;;;;;;6.50;54.40;;;;;;5028451;28;88478;-51
2022/03/24 11:03:21;;;;;;;;;;;6.50;54.90;;;;;;5028183;28;86930;-51
2022/03/24 11:05:47;;;;;;;;;;;6.60;54.00;;;;;;5029262;28;87256;-51
2022/03/24 11:08:31;;;;;;;;;;;6.60;55.00;;;;;;5031051;28;88705;-51
2022/03/24 11:10:57;;;;;;;;;;;6.60;54.00;;;;;;5028439;28;87821;-52
2022/03/24 11:13:42;;;;;;;;;;;6.70;54.30;;;;;;5027529;28;89568;-51
2022/03/24 11:16:09;;;;;;;;;;;6.70;54.20;;;;;;5028451;28;87024;-54
2022/03/24 11:18:37;;;;;;;;;;;6.80;53.50;;;;;;5028579;28;88006;-52
2022/03/24 11:21:13;;;;;;;;;;;6.80;52.60;;;;;;5028200;28;87739;-52
2022/03/24 11:23:39;;;;;;;;;;;6.80;53.60;;;;;;5028489;28;86855;-51
2022/03/24 11:26:09;;;;;;;;;;;6.80;52.90;;;;;;5028698;28;86806;-53
2022/03/24 11:28:35;;;;;;;;;;;6.90;52.70;;;;;;5027964;28;88501;-51
2022/03/24 11:31:09;;;;;;;;;;;6.90;52.50;;;;;;5031515;28;86305;-53
2022/03/24 11:33:39;;;;;;;;;;;7.00;52.10;;;;;;5027632;28;87413;-52
2022/03/24 11:36:06;;;;;;;;;;;7.00;51.60;;;;;;5027663;28;86878;-54
2022/03/24 11:38:31;;;;;;;;;;;7.00;52.30;;;;;;5027305;28;87857;-54
2022/03/24 11:41:00;;;;;;;;;;;7.00;52.90;;;;;;5027600;28;87489;-51
2022/03/24 11:43:26;;;;;;;;;;;7.10;51.90;;;;;;5027530;28;86799;-53
2022/03/24 11:45:54;;;;;;;;;;;7.10;51.80;;;;;;5027645;28;87819;-54
2022/03/24 11:48:40;;;;;;;;;;;7.10;51.80;;;;;;5027198;28;87629;-52
2022/03/24 11:51:06;;;;;;;;;;;7.20;51.70;;;;;;5027755;28;86917;-53
2022/03/24 11:53:35;;;;;;;;;;;7.20;52.80;;;;;;5030020;28;88010;-52
2022/03/24 11:56:03;;;;;;;;;;;7.20;52.80;;;;;;5027915;28;86458;-53
2022/03/24 11:58:34;;;;;;;;;;;7.30;51.50;;;;;;5027473;28;87154;-55
2022/03/24 12:01:21;;;;;;;;;;;7.30;51.10;;;;;;5026027;28;87542;-53
2022/03/24 12:03:48;;;;;;;;;;;7.30;53.00;;;;;;5007126;28;87803;-52
2022/03/24 12:06:15;;;;;;;;;;;7.40;51.60;;;;;;5007196;28;88870;-52
2022/03/24 12:08:48;;;;;;;;;;;7.40;51.10;;;;;;5006924;28;87945;-52
2022/03/24 12:11:32;;;;;;;;;;;7.40;51.40;;;;;;5007346;28;86922;-52
2022/03/24 12:14:02;;;;;;;;;;;7.50;53.10;;;;;;5007122;28;88066;-52
2022/03/24 12:16:28;;;;;;;;;;;7.50;52.20;;;;;;5010009;28;86866;-51
2022/03/24 12:18:53;;;;;;;;;;;7.50;51.00;;;;;;5007147;28;88232;-52
2022/03/24 12:21:19;;;;;;;;;;;7.50;52.30;;;;;;5007277;28;87971;-51
2022/03/24 12:24:03;;;;;;;;;;;7.60;52.20;;;;;;5006143;28;86881;-53
2022/03/24 12:26:30;;;;;;;;;;;7.60;52.00;;;;;;5007379;28;86844;-53
2022/03/24 12:29:22;;;;;;;;;;;7.60;51.10;;;;;;5005833;28;89469;-55
2022/03/24 12:32:11;;;;;;;;;;;7.70;51.10;;;;;;5003684;28;86912;-52
2022/03/24 12:34:43;;;;;;;;;;;7.70;50.10;;;;;;5007065;28;87242;-52
2022/03/24 12:37:29;;;;;;;;;;;7.70;51.50;;;;;;5006435;28;88550;-52
2022/03/24 12:40:13;;;;;;;;;;;7.80;51.00;;;;;;4998255;28;86844;-51
2022/03/24 12:42:49;;;;;;;;;;;7.90;50.70;;;;;;5006243;28;88540;-53
2022/03/24 12:45:27;;;;;;;;;;;7.90;51.10;;;;;;5006552;28;86912;-55
2022/03/24 12:47:56;;;;;;;;;;;7.90;50.20;;;;;;5007210;28;86710;-52
2022/03/24 12:50:21;;;;;;;;;;;8.00;50.50;;;;;;5006234;28;87648;-51
2022/03/24 12:52:57;;;;;;;;;;;8.00;49.90;;;;;;5006458;28;86947;-51
2022/03/24 12:55:27;;;;;;;;;;;8.00;50.20;;;;;;5006199;28;88103;-53
2022/03/24 12:57:56;;;;;;;;;;;8.00;50.70;;;;;;5005829;28;88576;-54
2022/03/24 13:00:24;;;;;;;;;;;8.10;49.40;;;;;;5009319;28;87280;-54
2022/03/24 13:02:49;;;;;;;;;;;8.10;50.80;;;;;;5018717;28;87529;-54
2022/03/24 13:05:20;;;;;;;;;;;8.20;51.00;;;;;;5026339;28;86890;-51
2022/03/24 13:07:51;;;;;;;;;;;8.20;49.70;;;;;;5025844;28;87887;-54
2022/03/24 13:10:17;;;;;;;;;;;8.20;50.90;;;;;;5025907;28;88644;-52
2022/03/24 13:12:44;;;;;;;;;;;8.30;49.50;;;;;;5025459;28;86350;-52
2022/03/24 13:15:17;;;;;;;;;;;8.30;51.00;;;;;;5026206;28;86828;-51
2022/03/24 13:17:42;;;;;;;;;;;8.30;50.50;;;;;;5025931;28;86910;-51
2022/03/24 13:20:08;;;;;;;;;;;8.30;49.70;;;;;;5025477;28;87796;-53
2022/03/24 13:22:34;;;;;;;;;;;8.40;50.80;;;;;;5027926;28;87807;-53
2022/03/24 13:25:13;;;;;;;;;;;8.40;50.40;;;;;;5025998;28;86897;-53
2022/03/24 13:27:39;;;;;;;;;;;8.40;51.10;;;;;;5025820;28;87160;-52
2022/03/24 13:30:06;;;;;;;;;;;8.50;49.60;;;;;;5025753;28;87448;-54
2022/03/24 13:32:32;;;;;;;;;;;8.50;50.20;;;;;;5026015;28;86866;-51
2022/03/24 13:34:59;;;;;;;;;;;8.60;50.70;;;;;;5026076;28;87764;-54
2022/03/24 13:37:25;;;;;;;;;;;8.60;49.20;;;;;;5026299;28;86138;-51
2022/03/24 13:39:55;;;;;;;;;;;8.60;50.80;;;;;;5025677;28;86890;-53
2022/03/24 13:42:22;;;;;;;;;;;8.70;50.20;;;;;;5026000;28;87885;-51
2022/03/24 13:44:48;;;;;;;;;;;8.70;50.50;;;;;;5028205;28;88221;-54
2022/03/24 13:47:15;;;;;;;;;;;8.80;50.10;;;;;;5025637;28;88861;-54
2022/03/24 13:49:41;;;;;;;;;;;8.80;49.80;;;;;;5025765;28;87212;-55
2022/03/24 13:52:07;;;;;;;;;;;8.80;49.40;;;;;;5025782;28;86884;-51
2022/03/24 13:54:34;;;;;;;;;;;8.90;48.50;;;;;;5025586;28;88475;-54
2022/03/24 13:57:00;;;;;;;;;;;8.90;48.50;;;;;;5025583;28;87278;-51
2022/03/24 13:59:32;;;;;;;;;;;8.90;49.70;;;;;;5025623;28;86875;-55
2022/03/24 14:01:58;;;;;;;;;;;9.00;50.50;;;;;;5025761;28;88244;-56
2022/03/24 14:04:23;;;;;;;;;;;9.00;50.30;;;;;;5025178;28;88626;-52
2022/03/24 14:07:02;;;;;;;;;;;9.10;50.40;;;;;;5027489;28;86952;-53
2022/03/24 14:09:29;;;;;;;;;;;9.10;49.50;;;;;;5024692;28;88854;-52
2022/03/24 14:12:05;;;;;;;;;;;9.10;48.70;;;;;;5024796;28;87048;-52
2022/03/24 14:14:31;;;;;;;;;;;9.20;49.10;;;;;;5025723;28;86851;-53
2022/03/24 14:16:56;;;;;;;;;;;9.20;50.00;;;;;;5024932;28;88756;-53
2022/03/24 14:19:26;;;;;;;;;;;9.30;50.00;;;;;;5024424;28;86940;-53
2022/03/24 14:21:53;;;;;;;;;;;9.30;50.40;;;;;;5025383;28;87845;-52
2022/03/24 14:24:31;;;;;;;;;;;9.40;49.80;;;;;;5024918;28;87720;-52
2022/03/24 14:27:01;;;;;;;;;;;9.40;50.20;;;;;;5025745;28;86094;-55
2022/03/24 14:29:27;;;;;;;;;;;9.40;49.60;;;;;;5027555;28;87359;-55
2022/03/24 14:32:10;;;;;;;;;;;9.40;48.90;;;;;;5025249;28;86918;-51
2022/03/24 14:34:37;;;;;;;;;;;9.50;50.20;;;;;;5024873;28;87863;-52